createdAt,value
2022-09-23T00:01:27.268Z,101006.75
2022-09-23T00:03:55.194Z,101006.53
2022-09-23T00:06:23.923Z,101010.56
2022-09-23T00:08:52.926Z,101008.69
2022-09-23T00:11:22.807Z,101007.59
2022-09-23T00:13:55.016Z,101002.69
2022-09-23T00:16:28.340Z,101000.25
2022-09-23T00:18:56.813Z,101005.69
2022-09-23T00:21:25.022Z,101007.56
2022-09-23T00:23:52.853Z,101004.59
2022-09-23T00:26:22.882Z,100997.78
2022-09-23T00:28:52.742Z,100999.97
2022-09-23T00:31:22.513Z,100993.16
2022-09-23T00:33:54.561Z,100997.53
2022-09-23T00:36:22.558Z,100995.06
2022-09-23T00:38:50.604Z,100998.34
2022-09-23T00:41:19.045Z,101005.97
2022-09-23T00:43:49.819Z,101000.25
2022-09-23T00:46:23.655Z,100997.25
2022-09-23T00:48:57.257Z,100989.88
2022-09-23T00:51:30.717Z,100985.25
2022-09-23T00:53:59.059Z,100981.69
2022-09-23T00:56:26.979Z,100985.19
2022-09-23T00:58:55.045Z,100987.97
2022-09-23T01:01:25.446Z,100981.13
2022-09-23T01:03:55.317Z,100984.41
2022-09-23T01:06:23.285Z,100978.97
2022-09-23T01:08:52.111Z,100977.06
2022-09-23T01:11:35.893Z,100978.41
2022-09-23T01:14:22.252Z,100968.88
2022-09-23T01:16:58.227Z,100973.81
2022-09-23T01:19:40.511Z,100981.72
2022-09-23T01:22:14.036Z,100971.63
2022-09-23T01:24:48.984Z,100971.06
2022-09-23T01:27:36.199Z,100971.59
2022-09-23T01:30:17.729Z,100968.06
2022-09-23T01:33:00.827Z,100962.34
2022-09-23T01:35:37.598Z,100954.16
2022-09-23T01:38:15.439Z,100954.72
2022-09-23T01:40:51.885Z,100953.38
2022-09-23T01:43:26.337Z,100955.00
2022-09-23T01:45:59.759Z,100952.56
2022-09-23T01:48:36.246Z,100959.09
2022-09-23T01:51:08.807Z,100958.00
2022-09-23T01:53:44.349Z,100956.91
2022-09-23T01:56:16.077Z,100954.72
2022-09-23T01:58:49.569Z,100953.63
2022-09-23T02:01:22.070Z,100943.28
2022-09-23T02:03:59.630Z,100942.47
2022-09-23T02:06:32.778Z,100948.75
2022-09-23T02:09:03.465Z,100940.56
2022-09-23T02:11:36.189Z,100935.66
2022-09-23T02:14:14.678Z,100937.28
2022-09-23T02:16:47.368Z,100939.75
2022-09-23T02:19:23.202Z,100931.56
2022-09-23T02:21:55.627Z,100932.38
2022-09-23T02:24:28.682Z,100931.56
2022-09-23T02:27:02.595Z,100934.84
2022-09-23T02:29:39.022Z,100934.88
2022-09-23T02:32:16.108Z,100924.78
2022-09-23T02:34:51.684Z,100921.53
2022-09-23T02:37:28.637Z,100915.25
2022-09-23T02:40:02.897Z,100922.31
2022-09-23T02:42:40.629Z,100914.97
2022-09-23T02:45:09.219Z,100910.63
2022-09-23T02:47:40.600Z,100910.06
2022-09-23T02:50:10.718Z,100911.41
2022-09-23T02:52:38.909Z,100908.16
2022-09-23T02:55:09.501Z,100904.09
2022-09-23T02:57:37.418Z,100902.44
2022-09-23T03:00:06.416Z,100903.00
2022-09-23T03:02:55.898Z,100903.00
2022-09-23T03:05:30.124Z,100902.72
2022-09-23T03:08:15.028Z,100895.91
2022-09-23T03:10:54.225Z,100896.19
2022-09-23T03:13:32.071Z,100893.19
2022-09-23T03:16:09.651Z,100891.53
2022-09-23T03:18:42.720Z,100888.81
2022-09-23T03:21:17.357Z,100885.00
2022-09-23T03:23:47.348Z,100886.09
2022-09-23T03:26:20.140Z,100895.38
2022-09-23T03:28:48.572Z,100891.53
2022-09-23T03:31:18.009Z,100891.00
2022-09-23T03:33:49.400Z,100891.31
2022-09-23T03:36:45.394Z,100882.31
2022-09-23T03:39:22.879Z,100884.75
2022-09-23T03:41:54.017Z,100880.66
2022-09-23T03:44:22.149Z,100885.53
2022-09-23T03:46:50.526Z,100880.91
2022-09-23T03:49:20.438Z,100871.97
2022-09-23T03:51:49.634Z,100874.38
2022-09-23T03:54:19.604Z,100871.94
2022-09-23T03:56:48.579Z,100872.50
2022-09-23T03:59:17.036Z,100867.31
2022-09-23T04:01:45.996Z,100868.09
2022-09-23T04:04:14.039Z,100869.19
2022-09-23T04:06:42.001Z,100864.31
2022-09-23T04:09:11.202Z,100861.56
2022-09-23T04:11:39.770Z,100858.84
2022-09-23T04:14:08.141Z,100870.81
2022-09-23T04:16:36.018Z,100864.00
2022-09-23T04:19:05.085Z,100863.75
2022-09-23T04:21:33.179Z,100857.72
2022-09-23T04:24:01.227Z,100864.25
2022-09-23T04:26:30.666Z,100857.13
2022-09-23T04:28:58.786Z,100856.03
2022-09-23T04:31:26.922Z,100850.91
2022-09-23T04:33:55.009Z,100852.81
2022-09-23T04:36:22.897Z,100841.34
2022-09-23T04:38:50.953Z,100838.63
2022-09-23T04:41:19.556Z,100837.56
2022-09-23T04:43:48.746Z,100843.81
2022-09-23T04:46:16.709Z,100840.81
2022-09-23T04:48:44.462Z,100823.47
2022-09-23T04:51:13.705Z,100834.59
2022-09-23T04:53:42.584Z,100826.97
2022-09-23T04:56:11.605Z,100823.75
2022-09-23T04:58:39.861Z,100827.50
2022-09-23T05:01:13.333Z,100829.41
2022-09-23T05:03:41.816Z,100828.59
2022-09-23T05:06:10.971Z,100828.31
2022-09-23T05:08:38.649Z,100828.06
2022-09-23T05:11:06.562Z,100822.88
2022-09-23T05:13:35.072Z,100816.91
2022-09-23T05:16:04.164Z,100812.00
2022-09-23T05:18:33.517Z,100822.34
2022-09-23T05:21:01.611Z,100830.22
2022-09-23T05:23:29.737Z,100835.66
2022-09-23T05:25:58.240Z,100832.09
2022-09-23T05:28:28.017Z,100831.03
2022-09-23T05:31:02.844Z,100831.31
2022-09-23T05:33:31.268Z,100842.47
2022-09-23T05:36:00.786Z,100838.13
2022-09-23T05:38:29.121Z,100840.31
2022-09-23T05:40:58.311Z,100841.69
2022-09-23T05:43:26.250Z,100836.28
2022-09-23T05:46:05.887Z,100836.25
2022-09-23T05:48:36.260Z,100846.34
2022-09-23T05:51:08.977Z,100846.91
2022-09-23T05:53:36.978Z,100838.47
2022-09-23T05:58:37.629Z,100838.19
2022-09-23T06:01:10.052Z,100838.19
2022-09-23T06:03:38.102Z,100835.44
2022-09-23T06:06:07.422Z,100836.53
2022-09-23T06:08:36.157Z,100834.63
2022-09-23T06:11:07.482Z,100831.56
2022-09-23T06:13:37.985Z,100833.72
2022-09-23T06:16:07.855Z,100832.91
2022-09-23T06:18:36.069Z,100839.94
2022-09-23T06:21:04.420Z,100847.28
2022-09-23T06:23:35.948Z,100836.25
2022-09-23T06:26:07.156Z,100832.91
2022-09-23T06:28:35.993Z,100839.91
2022-09-23T06:31:07.577Z,100841.38
2022-09-23T06:33:37.629Z,100833.84
2022-09-23T06:36:06.223Z,100839.84
2022-09-23T06:38:35.669Z,100841.09
2022-09-23T06:41:03.619Z,100839.13
2022-09-23T06:43:31.528Z,100832.66
2022-09-23T06:46:00.378Z,100833.06
2022-09-23T06:48:28.747Z,100833.34
2022-09-23T06:51:01.562Z,100830.22
2022-09-23T06:53:31.986Z,100836.28
2022-09-23T06:56:02.399Z,100828.78
2022-09-23T06:58:31.484Z,100823.56
2022-09-23T07:01:01.814Z,100825.94
2022-09-23T07:03:30.837Z,100829.94
2022-09-23T07:05:58.710Z,100821.47
2022-09-23T07:08:27.488Z,100826.31
2022-09-23T07:10:55.455Z,100822.81
2022-09-23T07:13:24.947Z,100825.06
2022-09-23T07:15:53.089Z,100829.09
2022-09-23T07:18:21.741Z,100829.47
2022-09-23T07:20:49.652Z,100835.66
2022-09-23T07:23:17.746Z,100826.13
2022-09-23T07:25:46.668Z,100829.47
2022-09-23T07:28:14.450Z,100831.75
2022-09-23T07:30:56.239Z,100829.50
2022-09-23T07:33:32.951Z,100824.19
2022-09-23T07:36:04.756Z,100832.50
2022-09-23T07:38:32.705Z,100835.31
2022-09-23T07:41:04.815Z,100839.88
2022-09-23T07:43:32.956Z,100837.09
2022-09-23T07:46:03.281Z,100831.81
2022-09-23T07:48:34.359Z,100833.69
2022-09-23T07:51:07.182Z,100835.72
2022-09-23T07:53:35.623Z,100831.44
2022-09-23T07:56:06.361Z,100836.50
2022-09-23T07:58:34.811Z,100830.06
2022-09-23T08:01:04.926Z,100836.66
2022-09-23T08:03:32.699Z,100841.88
2022-09-23T08:06:05.148Z,100832.16
2022-09-23T08:08:33.060Z,100832.53
2022-09-23T08:11:04.651Z,100836.72
2022-09-23T08:13:32.888Z,100833.25
2022-09-23T08:16:00.787Z,100833.66
2022-09-23T08:18:30.506Z,100839.72
2022-09-23T08:20:58.212Z,100845.84
2022-09-23T08:23:26.065Z,100836.28
2022-09-23T08:25:59.493Z,100844.66
2022-09-23T08:28:27.851Z,100838.78
2022-09-23T08:30:55.976Z,100839.69
2022-09-23T08:33:24.250Z,100834.59
2022-09-23T08:35:53.720Z,100834.28
2022-09-23T08:38:21.535Z,100833.53
2022-09-23T08:40:50.336Z,100829.13
2022-09-23T08:43:22.859Z,100836.56
2022-09-23T08:45:53.624Z,100826.47
2022-09-23T08:48:29.292Z,100826.94
2022-09-23T08:51:02.719Z,100826.00
2022-09-23T08:53:33.318Z,100829.94
2022-09-23T08:56:04.003Z,100834.75
2022-09-23T08:58:38.419Z,100828.72
2022-09-23T09:01:10.964Z,100826.97
2022-09-23T09:03:41.592Z,100824.56
2022-09-23T09:06:13.787Z,100828.31
2022-09-23T09:08:42.303Z,100823.75
2022-09-23T09:11:12.032Z,100819.41
2022-09-23T09:13:48.793Z,100822.56
2022-09-23T09:17:01.174Z,100821.91
2022-09-23T09:19:37.907Z,100825.59
2022-09-23T09:22:11.897Z,100816.28
2022-09-23T09:24:40.902Z,100818.06
2022-09-23T09:27:11.713Z,100816.56
2022-09-23T09:29:42.325Z,100821.06
2022-09-23T09:32:14.956Z,100821.56
2022-09-23T09:34:46.110Z,100823.38
2022-09-23T09:37:19.007Z,100823.03
2022-09-23T09:39:46.897Z,100818.47
2022-09-23T09:42:18.392Z,100817.34
2022-09-23T09:44:48.995Z,100814.88
2022-09-23T09:47:21.979Z,100817.00
2022-09-23T09:49:53.081Z,100805.66
2022-09-23T09:52:24.054Z,100807.94
2022-09-23T09:54:52.218Z,100802.44
2022-09-23T09:57:35.158Z,100803.78
2022-09-23T10:00:18.905Z,100801.78
2022-09-23T10:02:47.586Z,100797.75
2022-09-23T10:05:25.581Z,100801.91
2022-09-23T10:07:55.019Z,100798.13
2022-09-23T10:10:33.202Z,100795.28
2022-09-23T10:13:15.390Z,100797.63
2022-09-23T10:15:45.143Z,100800.03
2022-09-23T10:18:19.525Z,100788.13
2022-09-23T10:20:47.453Z,100789.38
2022-09-23T10:23:20.942Z,100792.69
2022-09-23T10:25:56.514Z,100786.25
2022-09-23T10:28:40.428Z,100796.78
2022-09-23T10:31:09.831Z,100786.91
2022-09-23T10:33:41.735Z,100791.59
2022-09-23T10:36:10.547Z,100789.91
2022-09-23T10:38:39.742Z,100794.19
2022-09-23T10:41:32.302Z,100789.38
2022-09-23T10:44:21.227Z,100780.25
2022-09-23T10:46:54.495Z,100783.00
2022-09-23T10:49:33.362Z,100779.66
2022-09-23T10:52:07.702Z,100782.03
2022-09-23T10:54:46.115Z,100775.00
2022-09-23T10:57:40.514Z,100778.13
2022-09-23T11:00:29.134Z,100770.69
2022-09-23T11:03:13.789Z,100766.63
2022-09-23T11:05:44.267Z,100766.50
2022-09-23T11:08:23.005Z,100757.09
2022-09-23T11:11:02.861Z,100759.72
2022-09-23T11:13:43.482Z,100755.34
2022-09-23T11:16:17.886Z,100754.94
2022-09-23T11:18:51.447Z,100747.84
2022-09-23T11:21:41.450Z,100745.94
2022-09-23T11:24:18.311Z,100737.50
2022-09-23T11:26:53.013Z,100737.78
2022-09-23T11:29:42.332Z,100736.13
2022-09-23T11:32:23.325Z,100734.91
2022-09-23T11:35:02.516Z,100724.25
2022-09-23T11:37:33.061Z,100729.06
2022-09-23T11:40:03.481Z,100734.41
2022-09-23T11:42:36.474Z,100724.41
2022-09-23T11:45:07.842Z,100724.88
2022-09-23T11:47:39.949Z,100719.41
2022-09-23T11:50:15.484Z,100721.56
2022-09-23T11:52:45.590Z,100724.84
2022-09-23T11:55:22.229Z,100723.22
2022-09-23T11:57:54.046Z,100721.25
2022-09-23T12:00:23.079Z,100714.63
2022-09-23T12:03:04.985Z,100717.06
2022-09-23T12:05:36.075Z,100718.47
2022-09-23T12:08:06.195Z,100712.59
2022-09-23T12:10:41.958Z,100711.59
2022-09-23T12:13:16.084Z,100711.13
2022-09-23T12:15:50.427Z,100713.63
2022-09-23T12:18:29.348Z,100701.84
2022-09-23T12:21:39.124Z,100706.06
2022-09-23T12:24:20.066Z,100703.00
2022-09-23T12:26:50.065Z,100699.72
2022-09-23T12:29:19.409Z,100696.56
2022-09-23T12:31:49.657Z,100690.78
2022-09-23T12:34:22.074Z,100694.00
2022-09-23T12:36:50.046Z,100693.19
2022-09-23T12:39:19.045Z,100686.25
2022-09-23T12:41:48.610Z,100686.06
2022-09-23T12:44:29.291Z,100684.81
2022-09-23T12:47:15.023Z,100684.41
2022-09-23T12:49:44.573Z,100684.00
2022-09-23T12:52:25.824Z,100676.19
2022-09-23T12:54:56.905Z,100670.16
2022-09-23T12:57:43.509Z,100679.78
2022-09-23T13:00:25.614Z,100677.97
2022-09-23T13:03:09.434Z,100679.63
2022-09-23T13:06:01.237Z,100674.94
2022-09-23T13:08:29.806Z,100675.63
2022-09-23T13:10:58.897Z,100671.41
2022-09-23T13:13:29.174Z,100667.72
2022-09-23T13:15:57.295Z,100665.25
2022-09-23T13:18:26.115Z,100662.81
2022-09-23T13:20:56.770Z,100665.44
2022-09-23T13:23:25.997Z,100656.38
2022-09-23T13:25:54.894Z,100658.09
2022-09-23T13:28:27.122Z,100661.47
2022-09-23T13:30:54.994Z,100657.34
2022-09-23T13:33:27.275Z,100645.25
2022-09-23T13:35:57.906Z,100653.44
2022-09-23T13:38:26.718Z,100648.38
2022-09-23T13:40:55.408Z,100647.09
2022-09-23T13:43:24.714Z,100648.06
2022-09-23T13:45:52.692Z,100649.25
2022-09-23T13:48:23.616Z,100651.28
2022-09-23T13:50:53.237Z,100651.63
2022-09-23T13:53:24.131Z,100649.75
2022-09-23T13:56:00.244Z,100660.22
2022-09-23T13:58:29.992Z,100655.94
2022-09-23T14:00:58.270Z,100653.63
2022-09-23T14:03:27.207Z,100641.91
2022-09-23T14:05:55.842Z,100636.28
2022-09-23T14:08:25.788Z,100643.31
2022-09-23T14:10:53.880Z,100636.88
2022-09-23T14:13:25.912Z,100639.78
2022-09-23T14:15:55.151Z,100637.25
2022-09-23T14:18:31.555Z,100637.53
2022-09-23T14:20:59.422Z,100622.38
2022-09-23T14:23:28.542Z,100631.28
2022-09-23T14:25:56.626Z,100624.00
2022-09-23T14:28:25.927Z,100616.06
2022-09-23T14:30:57.426Z,100618.25
2022-09-23T14:33:26.874Z,100618.13
2022-09-23T14:35:57.056Z,100619.47
2022-09-23T14:38:43.350Z,100616.28
2022-09-23T14:41:17.548Z,100617.56
2022-09-23T14:43:50.218Z,100615.66
2022-09-23T14:46:19.244Z,100612.31
2022-09-23T14:48:54.995Z,100618.06
2022-09-23T14:51:23.632Z,100612.75
2022-09-23T14:53:51.346Z,100616.94
2022-09-23T14:56:21.494Z,100609.38
2022-09-23T14:58:52.839Z,100606.16
2022-09-23T15:01:25.661Z,100609.66
2022-09-23T15:03:54.227Z,100603.13
2022-09-23T15:06:23.095Z,100603.88
2022-09-23T15:08:52.113Z,100599.69
2022-09-23T15:11:22.338Z,100601.34
2022-09-23T15:13:50.857Z,100600.56
2022-09-23T15:16:24.864Z,100585.72
2022-09-23T15:18:54.861Z,100593.00
2022-09-23T15:21:23.239Z,100582.63
2022-09-23T15:23:52.549Z,100593.00
2022-09-23T15:26:22.568Z,100587.91
2022-09-23T15:28:51.908Z,100591.59
2022-09-23T15:31:20.877Z,100592.84
2022-09-23T15:33:49.278Z,100597.56
2022-09-23T15:36:18.178Z,100591.50
2022-09-23T15:38:46.547Z,100590.47
2022-09-23T15:41:14.957Z,100587.94
2022-09-23T15:43:44.525Z,100596.22
2022-09-23T15:46:14.862Z,100591.25
2022-09-23T15:48:44.012Z,100593.47
2022-09-23T15:51:15.124Z,100582.75
2022-09-23T15:53:42.821Z,100586.75
2022-09-23T15:56:10.718Z,100580.09
2022-09-23T15:58:38.451Z,100585.50
2022-09-23T16:01:08.430Z,100586.31
2022-09-23T16:03:36.486Z,100586.31
2022-09-23T16:06:06.134Z,100583.53
2022-09-23T16:08:33.991Z,100586.53
2022-09-23T16:11:01.751Z,100592.25
2022-09-23T16:13:29.468Z,100585.56
2022-09-23T16:15:57.427Z,100584.16
2022-09-23T16:18:26.530Z,100588.31
2022-09-23T16:20:54.650Z,100585.28
2022-09-23T16:23:33.931Z,100586.63
2022-09-23T16:26:03.466Z,100594.16
2022-09-23T16:28:31.286Z,100589.56
2022-09-23T16:30:59.189Z,100590.84
2022-09-23T16:33:28.460Z,100596.44
2022-09-23T16:35:56.268Z,100587.69
2022-09-23T16:38:24.075Z,100591.16
2022-09-23T16:40:52.015Z,100595.13
2022-09-23T16:43:20.051Z,100592.09
2022-09-23T16:45:47.787Z,100596.53
2022-09-23T16:48:19.499Z,100595.16
2022-09-23T16:50:48.717Z,100589.34
2022-09-23T16:53:17.939Z,100586.31
2022-09-23T16:55:46.022Z,100588.75
2022-09-23T16:58:13.737Z,100594.53
2022-09-23T17:00:59.268Z,100589.59
2022-09-23T17:03:42.479Z,100592.16
2022-09-23T17:06:13.224Z,100589.97
2022-09-23T17:08:41.653Z,100592.13
2022-09-23T17:11:10.558Z,100595.53
2022-09-23T17:13:41.082Z,100594.88
2022-09-23T17:16:09.234Z,100590.50
2022-09-23T17:18:38.874Z,100595.38
2022-09-23T17:21:07.729Z,100596.16
2022-09-23T17:23:37.481Z,100589.19
2022-09-23T17:26:05.840Z,100590.03
2022-09-23T17:28:33.683Z,100590.97
2022-09-23T17:31:02.418Z,100595.81
2022-09-23T17:33:31.011Z,100592.41
2022-09-23T17:36:00.060Z,100590.78
2022-09-23T17:38:29.292Z,100592.56
2022-09-23T17:41:00.926Z,100595.13
2022-09-23T17:43:29.025Z,100602.09
2022-09-23T17:45:58.111Z,100599.81
2022-09-23T17:48:26.389Z,100593.84
2022-09-23T17:50:57.723Z,100596.94
2022-09-23T17:53:25.872Z,100591.59
2022-09-23T17:55:57.230Z,100589.78
2022-09-23T17:58:27.147Z,100589.63
2022-09-23T18:00:55.458Z,100583.94
2022-09-23T18:03:23.275Z,100576.66
2022-09-23T18:05:51.267Z,100578.63
2022-09-23T18:08:19.310Z,100577.81
2022-09-23T18:10:47.028Z,100572.31
2022-09-23T18:13:14.738Z,100571.00
2022-09-23T18:15:43.874Z,100569.88
2022-09-23T18:18:11.701Z,100571.66
2022-09-23T18:20:39.402Z,100572.28
2022-09-23T18:23:07.091Z,100566.94
2022-09-23T18:25:39.634Z,100574.22
2022-09-23T18:28:07.958Z,100565.78
2022-09-23T18:30:35.648Z,100566.44
2022-09-23T18:33:05.557Z,100564.31
2022-09-23T18:35:33.245Z,100566.75
2022-09-23T18:38:00.951Z,100568.69
2022-09-23T18:40:28.870Z,100570.94
2022-09-23T18:42:56.673Z,100560.91
2022-09-23T18:45:24.396Z,100569.47
2022-09-23T18:48:09.801Z,100561.84
2022-09-23T18:50:43.124Z,100568.28
2022-09-23T18:53:11.119Z,100566.19
2022-09-23T18:55:40.526Z,100577.78
2022-09-23T18:58:08.278Z,100575.19
2022-09-23T19:00:36.452Z,100577.44
2022-09-23T19:03:04.754Z,100579.06
2022-09-23T19:05:34.063Z,100583.28
2022-09-23T19:08:03.326Z,100577.44
2022-09-23T19:10:31.055Z,100578.66
2022-09-23T19:12:59.017Z,100588.34
2022-09-23T19:15:26.712Z,100589.16
2022-09-23T19:17:54.762Z,100587.16
2022-09-23T19:20:22.604Z,100581.31
2022-09-23T19:22:50.328Z,100582.56
2022-09-23T19:25:19.368Z,100588.88
2022-09-23T19:27:48.502Z,100584.69
2022-09-23T19:30:16.390Z,100591.28
2022-09-23T19:32:45.186Z,100591.13
2022-09-23T19:35:15.841Z,100597.41
2022-09-23T19:37:44.276Z,100590.31
2022-09-23T19:40:12.029Z,100588.19
2022-09-23T19:42:42.901Z,100590.94
2022-09-23T19:45:11.080Z,100591.38
2022-09-23T19:47:39.327Z,100579.91
2022-09-23T19:50:07.678Z,100573.75
2022-09-23T19:52:35.457Z,100576.81
2022-09-23T19:55:03.136Z,100576.00
2022-09-23T19:57:33.330Z,100575.00
2022-09-23T20:00:02.644Z,100573.69
2022-09-23T20:02:30.457Z,100580.13
2022-09-23T20:04:58.227Z,100576.06
2022-09-23T20:07:25.949Z,100575.88
2022-09-23T20:09:53.817Z,100573.63
2022-09-23T20:12:21.519Z,100570.06
2022-09-23T20:14:51.376Z,100568.13
2022-09-23T20:17:20.721Z,100564.28
2022-09-23T20:19:48.445Z,100565.91
2022-09-23T20:22:33.194Z,100556.41
2022-09-23T20:25:01.529Z,100555.28
2022-09-23T20:27:31.042Z,100554.78
2022-09-23T20:29:59.300Z,100552.66
2022-09-23T20:32:28.938Z,100557.97
2022-09-23T20:34:57.036Z,100555.03
2022-09-23T20:37:25.050Z,100556.47
2022-09-23T20:39:53.483Z,100560.03
2022-09-23T20:42:21.809Z,100558.41
2022-09-23T20:44:49.600Z,100555.34
2022-09-23T20:47:18.570Z,100551.31
2022-09-23T20:49:48.846Z,100551.16
2022-09-23T20:52:17.239Z,100553.38
2022-09-23T20:54:45.458Z,100556.44
2022-09-23T20:57:14.666Z,100549.84
2022-09-23T20:59:43.205Z,100551.44
2022-09-23T21:02:11.147Z,100542.09
2022-09-23T21:04:38.931Z,100542.25
2022-09-23T21:07:08.141Z,100541.44
2022-09-23T21:09:35.868Z,100537.06
2022-09-23T21:12:03.642Z,100539.81
2022-09-23T21:14:32.728Z,100535.97
2022-09-23T21:17:00.764Z,100535.50
2022-09-23T21:19:28.787Z,100530.47
2022-09-23T21:21:56.548Z,100532.75
2022-09-23T21:24:53.524Z,100539.34
2022-09-23T21:27:13.592Z,100534.00
2022-09-23T21:29:41.473Z,100533.00
2022-09-23T21:32:10.244Z,100532.00
2022-09-23T21:34:38.026Z,100530.38
2022-09-23T21:37:05.858Z,100533.13
2022-09-23T21:39:35.076Z,100528.13
2022-09-23T21:42:02.766Z,100530.06
2022-09-23T21:44:30.492Z,100523.56
2022-09-23T21:46:59.223Z,100526.00
2022-09-23T21:49:27.064Z,100527.00
2022-09-23T21:51:58.711Z,100529.56
2022-09-23T21:54:26.571Z,100533.25
2022-09-23T21:56:55.850Z,100529.19
2022-09-23T21:59:23.590Z,100531.94
2022-09-23T22:01:54.243Z,100534.66
2022-09-23T22:04:22.424Z,100534.47
2022-09-23T22:06:50.156Z,100533.16
2022-09-23T22:09:18.805Z,100527.53
2022-09-23T22:12:04.375Z,100529.75
2022-09-23T22:14:33.579Z,100534.63
2022-09-23T22:17:02.970Z,100533.97
2022-09-23T22:19:34.641Z,100532.34
2022-09-23T22:22:02.939Z,100530.78
2022-09-23T22:24:30.821Z,100524.00
2022-09-23T22:26:58.549Z,100522.38
2022-09-23T22:29:43.909Z,100522.56
2022-09-23T22:32:30.759Z,100523.38
2022-09-23T22:34:58.613Z,100521.56
2022-09-23T22:37:27.983Z,100512.38
2022-09-23T22:39:55.841Z,100523.66
2022-09-23T22:42:23.630Z,100517.69
2022-09-23T22:44:51.666Z,100510.88
2022-09-23T22:47:21.059Z,100517.19
2022-09-23T22:49:49.163Z,100511.06
2022-09-23T22:52:21.065Z,100516.91
2022-09-23T22:54:49.199Z,100512.53
2022-09-23T22:57:16.941Z,100513.53
2022-09-23T22:59:47.988Z,100514.53
2022-09-23T23:02:16.555Z,100516.84
2022-09-23T23:04:46.770Z,100512.66
2022-09-23T23:07:15.221Z,100513.47
2022-09-23T23:09:42.916Z,100511.34
2022-09-23T23:12:10.610Z,100515.03
2022-09-23T23:14:38.660Z,100497.56
2022-09-23T23:17:07.423Z,100497.56
2022-09-23T23:19:35.277Z,100502.25
2022-09-23T23:22:04.384Z,100500.81
2022-09-23T23:24:32.313Z,100495.50
2022-09-23T23:27:00.162Z,100495.84
2022-09-23T23:29:27.870Z,100495.50
2022-09-23T23:31:55.675Z,100496.94
2022-09-23T23:34:23.837Z,100506.31
2022-09-23T23:36:54.605Z,100508.94
2022-09-23T23:39:25.094Z,100509.91
2022-09-23T23:41:54.631Z,100511.72
2022-09-23T23:44:23.220Z,100508.50
2022-09-23T23:46:51.048Z,100506.56
2022-09-23T23:49:18.896Z,100504.03
2022-09-23T23:51:47.719Z,100512.94
2022-09-23T23:54:16.045Z,100502.28
2022-09-23T23:56:45.136Z,100508.25
2022-09-23T23:59:12.877Z,100506.00
